Time;durP1;ratioP1;P1;durP2;ratioP2;P2;SDS_P1;SDS_P2;PMS_P1;PMS_P2;Temp;Humidity;BMP_temperature;BMP_pressure;BME280_temperature;BME280_humidity;BME280_pressure;Samples;Min_cycle;Max_cycle;Signal;HPM_P1;HPM_P2
2023/07/13 00:01:49;;;;;;;3.20;0.70;;;18.00;99.90;;;;;;5137119;27;20039;-52
2023/07/13 00:04:20;;;;;;;3.72;1.20;;;18.00;99.90;;;;;;5137076;27;20061;-52
2023/07/13 00:06:47;;;;;;;4.65;0.95;;;17.90;99.90;;;;;;5136960;27;20075;-49
2023/07/13 00:09:17;;;;;;;3.80;1.23;;;17.90;99.90;;;;;;5136966;27;20096;-50
2023/07/13 00:11:44;;;;;;;2.55;0.90;;;17.90;99.90;;;;;;5136788;27;20075;-50
2023/07/13 00:14:11;;;;;;;3.78;0.80;;;17.80;99.90;;;;;;5136846;27;20122;-49
2023/07/13 00:16:40;;;;;;;6.78;1.75;;;17.80;99.90;;;;;;5136892;27;20058;-51
2023/07/13 00:19:06;;;;;;;5.82;0.85;;;17.80;99.90;;;;;;5136857;27;20051;-50
2023/07/13 00:21:32;;;;;;;3.67;0.75;;;17.80;99.90;;;;;;5136747;27;20533;-49
2023/07/13 00:23:58;;;;;;;4.03;0.95;;;17.80;99.90;;;;;;5136991;27;20066;-50
2023/07/13 00:26:24;;;;;;;3.50;0.93;;;17.80;99.90;;;;;;5136579;27;20507;-50
2023/07/13 00:28:49;;;;;;;3.10;0.90;;;17.70;99.90;;;;;;5136616;27;20073;-54
2023/07/13 00:31:15;;;;;;;6.95;1.38;;;17.70;99.90;;;;;;5118301;27;20467;-49
2023/07/13 00:33:41;;;;;;;7.30;1.27;;;17.70;99.90;;;;;;5136411;27;20047;-49
2023/07/13 00:36:09;;;;;;;4.50;1.02;;;17.70;99.90;;;;;;5135447;27;20047;-52
2023/07/13 00:38:35;;;;;;;2.72;1.08;;;17.70;99.90;;;;;;5136422;27;20050;-49
2023/07/13 00:41:03;;;;;;;3.92;1.15;;;17.70;99.90;;;;;;5136210;27;20043;-49
2023/07/13 00:43:30;;;;;;;6.40;0.90;;;17.70;99.90;;;;;;5136074;27;20043;-50
2023/07/13 00:45:58;;;;;;;4.60;0.80;;;17.70;99.90;;;;;;5136246;27;20051;-49
2023/07/13 00:48:27;;;;;;;2.92;0.75;;;17.70;99.90;;;;;;5136183;27;20180;-52
2023/07/13 00:50:57;;;;;;;6.88;0.95;;;17.70;99.90;;;;;;5136018;27;20076;-53
2023/07/13 00:53:26;;;;;;;6.28;0.95;;;17.70;99.90;;;;;;5135879;27;20495;-50
2023/07/13 00:55:54;;;;;;;4.75;1.15;;;17.80;99.90;;;;;;5135997;27;20057;-49
2023/07/13 00:58:20;;;;;;;4.70;0.98;;;17.80;99.90;;;;;;5136071;27;20047;-49
2023/07/13 01:00:48;;;;;;;7.00;1.20;;;17.80;99.90;;;;;;5100905;27;20051;-49
2023/07/13 01:03:15;;;;;;;3.58;0.90;;;17.80;99.90;;;;;;5135855;27;20129;-52
2023/07/13 01:05:41;;;;;;;3.92;0.70;;;17.70;99.90;;;;;;5117456;27;20055;-50
2023/07/13 01:08:06;;;;;;;2.95;0.88;;;17.70;99.90;;;;;;5135662;27;20107;-49
2023/07/13 01:10:38;;;;;;;4.35;1.38;;;17.70;99.90;;;;;;5117439;27;20075;-49
2023/07/13 01:13:09;;;;;;;4.53;1.25;;;17.70;99.90;;;;;;5135746;27;20104;-49
2023/07/13 01:15:44;;;;;;;2.42;0.90;;;17.70;99.90;;;;;;5135804;27;20047;-51
2023/07/13 01:18:15;;;;;;;4.43;1.08;;;17.70;99.90;;;;;;5117381;27;20484;-51
2023/07/13 01:20:41;;;;;;;4.22;1.00;;;17.70;99.90;;;;;;5135580;27;20071;-53
2023/07/13 01:23:10;;;;;;;8.02;1.17;;;17.70;99.90;;;;;;5116995;27;20442;-50
2023/07/13 01:25:38;;;;;;;5.90;0.88;;;17.70;99.90;;;;;;5135418;27;20047;-50
2023/07/13 01:28:10;;;;;;;2.50;0.90;;;17.60;99.90;;;;;;5135466;27;20126;-50
2023/07/13 01:30:39;;;;;;;4.90;1.33;;;17.70;99.90;;;;;;5135681;27;20046;-50
2023/07/13 01:33:07;;;;;;;5.03;1.10;;;17.70;99.90;;;;;;5135398;27;20089;-50
2023/07/13 01:35:33;;;;;;;2.33;0.73;;;17.60;99.90;;;;;;5135229;27;20407;-53
2023/07/13 01:38:01;;;;;;;6.38;1.13;;;17.60;99.90;;;;;;5135264;27;20134;-50
2023/07/13 01:40:27;;;;;;;5.63;1.10;;;17.60;99.90;;;;;;5135287;27;20175;-50
2023/07/13 01:42:53;;;;;;;7.60;1.00;;;17.60;99.90;;;;;;5117124;27;20051;-50
2023/07/13 01:45:18;;;;;;;5.28;1.10;;;17.50;99.90;;;;;;5135159;27;20065;-52
2023/07/13 01:47:44;;;;;;;4.10;1.08;;;17.60;99.90;;;;;;5134885;27;20043;-52
2023/07/13 01:50:10;;;;;;;4.20;1.30;;;17.50;99.90;;;;;;5134740;27;20392;-51
2023/07/13 01:52:36;;;;;;;2.78;1.40;;;17.50;99.90;;;;;;5135040;27;20035;-51
2023/07/13 01:55:02;;;;;;;4.28;0.88;;;17.50;99.90;;;;;;5135256;27;20133;-50
2023/07/13 01:57:28;;;;;;;4.82;1.00;;;17.50;99.90;;;;;;5135142;27;20043;-49
2023/07/13 01:59:53;;;;;;;4.57;1.05;;;17.50;99.90;;;;;;5116877;27;20087;-49
2023/07/13 02:02:19;;;;;;;3.65;1.05;;;17.40;99.90;;;;;;5134607;27;20095;-49
2023/07/13 02:04:45;;;;;;;2.45;0.60;;;17.40;99.90;;;;;;5134408;27;20050;-50
2023/07/13 02:07:11;;;;;;;4.85;1.00;;;17.40;99.90;;;;;;5134899;27;20058;-51
2023/07/13 02:09:37;;;;;;;3.85;0.68;;;17.40;99.90;;;;;;5116697;27;20139;-50
2023/07/13 02:12:03;;;;;;;3.17;0.90;;;17.40;99.90;;;;;;5134556;27;20148;-50
2023/07/13 02:14:28;;;;;;;3.60;1.23;;;17.30;99.90;;;;;;5134586;27;20051;-51
2023/07/13 02:16:54;;;;;;;3.92;0.98;;;17.40;99.90;;;;;;5116291;27;20042;-52
2023/07/13 02:19:20;;;;;;;3.20;0.60;;;17.40;99.90;;;;;;5134446;27;20047;-50
2023/07/13 02:21:46;;;;;;;4.47;0.70;;;17.30;99.90;;;;;;5134790;27;20119;-51
2023/07/13 02:24:17;;;;;;;3.75;0.52;;;17.30;99.90;;;;;;5134656;27;20054;-49
2023/07/13 02:26:43;;;;;;;2.97;0.80;;;17.30;99.90;;;;;;5134793;28;20039;-50
2023/07/13 02:29:09;;;;;;;;;;;17.30;99.90;;;;;;5134815;28;20058;-50
2023/07/13 02:31:35;;;;;;;3.08;0.70;;;17.30;99.90;;;;;;5134285;28;19919;-50
2023/07/13 02:34:01;;;;;;;;;;;17.30;99.90;;;;;;5134838;28;20126;-50
2023/07/13 02:36:27;;;;;;;2.83;0.82;;;17.30;99.90;;;;;;5134756;28;20011;-50
2023/07/13 02:38:52;;;;;;;2.30;0.68;;;17.20;99.90;;;;;;5116361;28;20051;-57
2023/07/13 02:41:18;;;;;;;5.72;0.70;;;17.20;99.90;;;;;;5134407;28;20046;-51
2023/07/13 02:43:44;;;;;;;1.35;0.60;;;17.20;99.90;;;;;;5134436;28;20047;-50
2023/07/13 02:46:09;;;;;;;4.50;0.80;;;17.20;99.90;;;;;;5134414;28;20046;-49
2023/07/13 02:48:37;;;;;;;4.53;0.88;;;17.20;99.90;;;;;;5134317;28;20055;-50
2023/07/13 02:51:02;;;;;;;1.90;0.43;;;17.20;99.90;;;;;;5134258;28;20047;-51
2023/07/13 02:53:28;;;;;;;2.45;0.65;;;17.10;99.90;;;;;;5134431;28;20042;-49
2023/07/13 02:55:54;;;;;;;2.50;0.73;;;17.10;99.90;;;;;;5116006;28;20046;-49
2023/07/13 02:58:19;;;;;;;3.08;0.90;;;17.10;99.90;;;;;;5134173;27;20382;-50
2023/07/13 03:00:46;;;;;;;3.55;0.90;;;17.10;99.90;;;;;;5137246;27;20035;-50
2023/07/13 03:03:13;;;;;;;3.38;1.00;;;17.10;99.90;;;;;;5138110;27;20090;-49
2023/07/13 03:05:41;;;;;;;4.10;1.05;;;17.10;99.90;;;;;;5137909;27;20439;-50
2023/07/13 03:08:09;;;;;;;6.47;1.50;;;17.00;99.90;;;;;;5138353;27;20135;-48
2023/07/13 03:10:34;;;;;;;4.90;1.10;;;17.10;99.90;;;;;;5138003;27;20075;-51
2023/07/13 03:13:00;;;;;;;4.18;1.02;;;17.00;99.90;;;;;;5138245;27;20427;-51
2023/07/13 03:15:26;;;;;;;3.90;1.00;;;17.00;99.90;;;;;;5119893;27;20043;-49
2023/07/13 03:17:52;;;;;;;4.57;1.05;;;17.00;99.90;;;;;;5137900;27;20541;-49
2023/07/13 03:20:18;;;;;;;4.55;1.00;;;17.00;99.90;;;;;;5138099;27;20126;-49
2023/07/13 03:22:44;;;;;;;4.28;1.17;;;17.00;99.90;;;;;;5138246;27;20062;-49
2023/07/13 03:25:10;;;;;;;4.40;1.20;;;16.90;99.90;;;;;;5137757;27;20487;-50
2023/07/13 03:27:36;;;;;;;5.65;1.08;;;16.90;99.90;;;;;;5119496;27;20051;-49
2023/07/13 03:30:03;;;;;;;3.42;1.08;;;17.00;99.90;;;;;;5137573;27;20087;-49
2023/07/13 03:32:29;;;;;;;5.95;1.50;;;16.90;99.90;;;;;;5119495;27;20402;-49
2023/07/13 03:34:55;;;;;;;4.78;1.20;;;16.90;99.90;;;;;;5137353;27;20122;-48
2023/07/13 03:37:20;;;;;;;4.15;1.00;;;16.90;99.90;;;;;;5119566;27;20043;-49
2023/07/13 03:39:46;;;;;;;5.38;1.10;;;16.80;99.90;;;;;;5137559;27;20131;-50
2023/07/13 03:42:12;;;;;;;4.25;1.10;;;16.90;99.90;;;;;;5119303;27;20430;-49
2023/07/13 03:44:39;;;;;;;8.40;1.35;;;16.90;99.90;;;;;;5119413;27;20053;-49
2023/07/13 03:47:05;;;;;;;5.78;1.50;;;16.80;99.90;;;;;;5137381;27;20058;-49
2023/07/13 03:49:31;;;;;;;;;;;16.80;99.90;;;;;;5137842;27;20047;-50
2023/07/13 03:51:57;;;;;;;4.80;1.48;;;16.90;99.90;;;;;;5137232;27;19942;-50
2023/07/13 03:54:23;;;;;;;3.90;1.00;;;16.90;99.90;;;;;;5119464;27;20050;-49
2023/07/13 03:56:48;;;;;;;8.02;1.08;;;16.90;99.90;;;;;;5137224;27;20140;-50
2023/07/13 03:59:14;;;;;;;3.75;1.50;;;16.90;99.90;;;;;;5137115;27;20479;-49
2023/07/13 04:01:40;;;;;;;5.43;1.08;;;16.90;99.90;;;;;;5118917;27;20035;-50
2023/07/13 04:04:05;;;;;;;5.55;1.25;;;16.90;99.90;;;;;;5137560;27;20051;-49
2023/07/13 04:06:32;;;;;;;3.60;1.02;;;16.90;99.90;;;;;;5137342;27;20134;-49
2023/07/13 04:09:00;;;;;;;2.70;1.42;;;16.90;99.90;;;;;;5136899;27;20043;-50
2023/07/13 04:11:28;;;;;;;5.97;1.30;;;17.00;99.90;;;;;;5136820;27;20043;-49
2023/07/13 04:13:55;;;;;;;3.78;1.20;;;17.00;99.90;;;;;;5118601;27;20491;-50
2023/07/13 04:16:20;;;;;;;4.65;1.13;;;17.00;99.90;;;;;;5136943;27;20456;-49
2023/07/13 04:18:47;;;;;;;3.65;0.98;;;16.90;99.90;;;;;;5136884;27;20130;-50
2023/07/13 04:21:13;;;;;;;3.53;0.93;;;17.00;99.90;;;;;;5136824;27;20467;-48
2023/07/13 04:23:39;;;;;;;7.45;1.08;;;16.90;99.90;;;;;;5118631;27;20054;-49
2023/07/13 04:26:06;;;;;;;3.90;1.00;;;16.90;99.90;;;;;;5136648;27;20039;-51
2023/07/13 04:28:31;;;;;;;;;;;16.90;99.90;;;;;;5137078;27;20130;-49
2023/07/13 04:30:57;;;;;;;3.13;1.00;;;16.90;99.90;;;;;;5136591;27;20025;-48
2023/07/13 04:33:23;;;;;;;5.40;1.42;;;16.90;99.90;;;;;;5118524;27;20472;-51
2023/07/13 04:35:56;;;;;;;3.65;1.00;;;16.90;99.90;;;;;;5136521;27;20054;-49
2023/07/13 04:38:29;;;;;;;4.85;1.45;;;16.90;99.90;;;;;;5136470;27;20619;-49
2023/07/13 04:40:57;;;;;;;3.92;1.10;;;16.90;99.90;;;;;;5136187;27;20051;-50
2023/07/13 04:43:23;;;;;;;4.40;0.98;;;16.90;99.90;;;;;;5136839;27;20171;-50
2023/07/13 04:45:50;;;;;;;;;;;16.90;99.90;;;;;;5101336;27;20055;-49
2023/07/13 04:48:16;;;;;;;9.05;1.48;;;16.90;99.90;;;;;;5136085;27;20356;-49
2023/07/13 04:50:43;;;;;;;6.63;1.40;;;16.90;99.90;;;;;;5117696;27;20039;-49
2023/07/13 04:53:10;;;;;;;4.15;1.13;;;16.90;99.90;;;;;;5136050;27;20054;-51
2023/07/13 04:55:36;;;;;;;5.82;1.20;;;16.90;99.90;;;;;;5136024;27;20046;-49
2023/07/13 04:58:02;;;;;;;5.22;1.42;;;16.90;99.90;;;;;;5117699;27;20054;-50
2023/07/13 05:00:29;;;;;;;4.07;1.27;;;17.00;99.90;;;;;;5135760;27;20114;-49
2023/07/13 05:02:58;;;;;;;5.35;1.25;;;17.00;99.90;;;;;;5135931;27;20092;-48
2023/07/13 05:05:25;;;;;;;3.13;1.33;;;17.00;99.90;;;;;;5135913;27;20051;-51
2023/07/13 05:07:52;;;;;;;7.63;1.60;;;17.00;99.90;;;;;;5135953;27;20054;-49
2023/07/13 05:10:18;;;;;;;7.28;1.20;;;17.00;99.90;;;;;;5135690;27;20039;-49
2023/07/13 05:12:44;;;;;;;5.93;1.20;;;17.10;99.90;;;;;;5135539;27;20507;-49
2023/07/13 05:15:10;;;;;;;6.57;1.27;;;17.10;99.90;;;;;;5135907;27;20047;-49
2023/07/13 05:17:35;;;;;;;4.97;1.17;;;17.10;99.90;;;;;;5135723;27;20050;-50
2023/07/13 05:20:01;;;;;;;4.28;1.20;;;17.20;99.90;;;;;;5135677;27;20043;-50
2023/07/13 05:22:27;;;;;;;5.18;1.10;;;17.40;99.90;;;;;;5116684;27;20039;-48
2023/07/13 05:24:52;;;;;;;2.97;1.00;;;17.50;99.90;;;;;;5135395;27;20047;-51
2023/07/13 05:27:18;;;;;;;3.60;1.20;;;17.50;99.90;;;;;;5117439;27;20054;-49
2023/07/13 05:29:44;;;;;;;7.40;1.17;;;17.60;99.90;;;;;;5135842;27;20133;-49
2023/07/13 05:32:10;;;;;;;4.75;1.20;;;17.70;99.90;;;;;;5135385;27;20047;-48
2023/07/13 05:34:36;;;;;;;4.13;1.15;;;17.70;99.90;;;;;;5117239;27;20124;-49
2023/07/13 05:37:01;;;;;;;3.60;1.20;;;17.70;99.90;;;;;;5135156;27;20101;-48
2023/07/13 05:39:27;;;;;;;3.58;1.27;;;17.80;99.90;;;;;;5135037;27;20046;-47
2023/07/13 05:41:53;;;;;;;6.70;1.23;;;17.90;99.90;;;;;;5116835;27;20434;-50
2023/07/13 05:44:19;;;;;;;3.83;1.23;;;18.00;99.90;;;;;;5135177;27;20054;-48
2023/07/13 05:46:45;;;;;;;13.52;1.50;;;18.10;99.90;;;;;;5135102;27;20460;-49
2023/07/13 05:49:10;;;;;;;3.28;1.00;;;18.10;99.90;;;;;;5116998;27;20130;-49
2023/07/13 05:51:37;;;;;;;4.22;1.40;;;18.20;99.90;;;;;;5134990;27;20126;-47
2023/07/13 05:54:03;;;;;;;5.47;1.25;;;18.30;99.90;;;;;;5134914;27;20475;-48
2023/07/13 05:56:28;;;;;;;4.53;1.15;;;18.40;99.90;;;;;;5134990;27;20108;-51
2023/07/13 05:58:54;;;;;;;2.83;1.02;;;18.40;99.90;;;;;;5134980;27;20054;-48
2023/07/13 06:01:20;;;;;;;5.43;1.25;;;18.40;99.90;;;;;;5134830;27;20083;-48
2023/07/13 06:03:47;;;;;;;4.32;0.98;;;18.40;99.90;;;;;;5116682;27;20055;-47
2023/07/13 06:06:13;;;;;;;4.80;1.10;;;18.50;99.90;;;;;;5134364;27;20055;-49
2023/07/13 06:08:39;;;;;;;4.60;1.58;;;18.50;99.90;;;;;;5134584;27;20400;-49
2023/07/13 06:11:11;;;;;;;5.97;0.95;;;18.50;99.90;;;;;;5135188;27;20184;-47
2023/07/13 06:13:37;;;;;;;3.67;1.33;;;18.50;99.90;;;;;;5134677;27;20058;-47
2023/07/13 06:16:06;;;;;;;3.15;1.00;;;18.60;99.90;;;;;;5134904;27;20488;-47
2023/07/13 06:18:36;;;;;;;4.82;1.05;;;18.70;99.90;;;;;;5134487;27;20039;-48
2023/07/13 06:21:14;;;;;;;3.65;1.00;;;18.70;99.90;;;;;;5134513;27;20463;-47
2023/07/13 06:23:39;;;;;;;6.40;0.95;;;18.70;99.90;;;;;;5134687;27;20126;-49
2023/07/13 06:26:05;;;;;;;3.03;1.15;;;18.80;99.90;;;;;;5099600;27;20560;-47
2023/07/13 06:28:31;;;;;;;5.68;1.30;;;18.80;99.90;;;;;;5116550;28;20048;-47
2023/07/13 06:30:58;;;;;;;2.78;1.60;;;18.80;99.90;;;;;;5134463;28;20399;-48
2023/07/13 06:33:24;;;;;;;5.47;1.13;;;18.90;99.90;;;;;;5134333;27;20075;-48
2023/07/13 06:35:50;;;;;;;;;;;18.90;99.90;;;;;;5138154;27;20085;-49
2023/07/13 06:38:16;;;;;;;2.65;1.10;;;18.90;99.90;;;;;;5138741;27;19963;-48
2023/07/13 06:40:41;;;;;;;1.98;0.70;;;19.00;99.90;;;;;;5121025;27;20065;-47
2023/07/13 06:43:07;;;;;;;4.60;0.90;;;19.10;99.90;;;;;;5120485;27;20043;-47
2023/07/13 06:45:41;;;;;;;3.03;0.93;;;19.10;99.90;;;;;;5138726;27;20047;-49
2023/07/13 06:48:07;;;;;;;2.20;1.08;;;19.20;99.90;;;;;;5103574;27;20506;-47
2023/07/13 06:50:33;;;;;;;6.38;1.27;;;19.20;99.90;;;;;;5138383;27;20036;-47
2023/07/13 06:52:59;;;;;;;3.58;0.90;;;19.10;99.90;;;;;;5138948;27;20047;-47
2023/07/13 06:55:25;;;;;;;2.10;0.90;;;19.20;99.90;;;;;;5138662;27;20092;-48
2023/07/13 06:57:51;;;;;;;3.33;0.60;;;19.20;99.90;;;;;;5120130;27;20043;-49
2023/07/13 07:00:17;;;;;;;4.03;0.70;;;19.30;99.90;;;;;;5138284;27;20046;-48
2023/07/13 07:02:43;;;;;;;2.95;0.90;;;19.40;99.90;;;;;;5138143;27;20103;-48
2023/07/13 07:05:09;;;;;;;;;;;19.50;99.90;;;;;;5138128;27;20055;-47
2023/07/13 07:07:35;;;;;;;1.75;0.70;;;19.50;99.90;;;;;;5119746;27;19926;-48
2023/07/13 07:10:01;;;;;;;2.78;0.90;;;19.50;99.90;;;;;;5120067;27;20054;-48
2023/07/13 07:12:26;;;;;;;1.58;0.60;;;19.50;99.90;;;;;;5138087;27;20043;-48
2023/07/13 07:14:52;;;;;;;4.43;1.02;;;19.60;99.90;;;;;;5138086;27;20044;-47
2023/07/13 07:17:18;;;;;;;1.83;0.70;;;19.60;99.90;;;;;;5138038;27;20130;-48
2023/07/13 07:19:43;;;;;;;4.43;0.95;;;19.70;99.90;;;;;;5137838;27;20065;-48
2023/07/13 07:22:09;;;;;;;4.38;0.77;;;19.80;99.90;;;;;;5137892;27;20039;-48
2023/07/13 07:24:35;;;;;;;3.25;1.02;;;19.80;99.90;;;;;;5138065;27;20475;-48
2023/07/13 07:27:00;;;;;;;2.78;0.77;;;20.00;99.90;;;;;;5119840;27;20053;-48
2023/07/13 07:29:27;;;;;;;4.18;0.80;;;20.00;99.90;;;;;;5137958;27;20043;-47
2023/07/13 07:31:53;;;;;;;3.50;1.00;;;20.10;99.90;;;;;;5137535;27;20399;-48
2023/07/13 07:34:19;;;;;;;4.60;0.90;;;20.10;99.90;;;;;;5119516;27;20046;-48
2023/07/13 07:36:45;;;;;;;2.15;0.63;;;20.10;99.90;;;;;;5137679;27;20047;-48
2023/07/13 07:39:11;;;;;;;2.38;0.63;;;20.10;99.90;;;;;;5137797;27;20042;-47
2023/07/13 07:41:37;;;;;;;2.60;0.57;;;20.00;99.90;;;;;;5137575;27;20059;-47
2023/07/13 07:44:03;;;;;;;2.63;0.65;;;19.90;99.90;;;;;;5119125;27;20395;-48
2023/07/13 07:46:29;;;;;;;2.63;0.63;;;19.90;99.90;;;;;;5136861;27;20081;-48
2023/07/13 07:48:56;;;;;;;2.10;0.50;;;20.00;99.90;;;;;;5137358;27;20043;-48
2023/07/13 07:51:21;;;;;;;2.38;0.60;;;20.00;99.90;;;;;;5137938;27;20051;-48
2023/07/13 07:53:48;;;;;;;4.85;0.80;;;20.00;99.90;;;;;;5137360;27;20496;-48
2023/07/13 07:56:16;;;;;;;2.97;0.70;;;19.90;99.90;;;;;;5137185;27;20130;-48
2023/07/13 07:58:42;;;;;;;4.00;1.70;;;19.90;99.90;;;;;;5137260;27;20043;-47
2023/07/13 08:01:08;;;;;;;1.42;0.70;;;19.90;99.90;;;;;;5137207;27;20039;-48
2023/07/13 08:03:34;;;;;;;2.63;0.70;;;19.90;99.90;;;;;;5118579;27;20050;-48
2023/07/13 08:06:00;;;;;;;1.23;0.73;;;19.90;99.90;;;;;;5136991;27;20055;-48
2023/07/13 08:08:26;;;;;;;3.55;1.05;;;19.80;99.90;;;;;;5137101;27;20054;-48
2023/07/13 08:10:52;;;;;;;3.97;1.25;;;19.80;99.90;;;;;;5137206;27;20039;-49
2023/07/13 08:13:17;;;;;;;5.43;1.10;;;19.70;99.90;;;;;;5137003;27;20427;-49
2023/07/13 08:15:43;;;;;;;2.95;0.80;;;19.60;99.90;;;;;;5136674;27;20488;-48
2023/07/13 08:18:09;;;;;;;4.03;1.13;;;19.50;99.90;;;;;;5136744;27;20051;-49
2023/07/13 08:20:41;;;;;;;2.80;0.60;;;19.40;99.90;;;;;;5118502;27;20126;-47
2023/07/13 08:23:09;;;;;;;0.80;0.50;;;19.40;99.90;;;;;;5136671;27;20047;-49
2023/07/13 08:25:35;;;;;;;1.90;0.70;;;19.30;99.90;;;;;;5136628;27;20078;-47
2023/07/13 08:28:01;;;;;;;2.10;0.63;;;19.20;99.90;;;;;;5136621;27;20101;-49
2023/07/13 08:30:27;;;;;;;1.85;0.50;;;19.20;99.90;;;;;;5136360;27;20070;-48
2023/07/13 08:32:53;;;;;;;2.58;0.85;;;19.20;99.90;;;;;;5136664;27;20043;-48
2023/07/13 08:35:19;;;;;;;2.30;0.70;;;19.30;99.90;;;;;;5136472;27;20398;-47
2023/07/13 08:37:45;;;;;;;1.08;0.40;;;19.30;99.90;;;;;;5136600;27;20043;-47
2023/07/13 08:40:12;;;;;;;2.00;0.57;;;19.30;99.90;;;;;;5136286;27;20070;-48
2023/07/13 08:42:46;;;;;;;2.75;0.80;;;19.30;99.90;;;;;;5136224;27;20043;-47
2023/07/13 08:45:28;;;;;;;2.65;0.70;;;19.30;99.90;;;;;;5136197;27;20039;-50
2023/07/13 08:48:01;;;;;;;3.35;0.70;;;19.20;99.90;;;;;;5136233;27;20046;-48
2023/07/13 08:50:39;;;;;;;1.92;0.80;;;19.20;99.90;;;;;;5136046;27;20042;-47
2023/07/13 08:53:07;;;;;;;4.15;1.10;;;19.10;99.90;;;;;;5136045;27;20047;-47
2023/07/13 08:55:37;;;;;;;2.38;0.88;;;19.10;99.90;;;;;;5135895;27;20495;-48
2023/07/13 08:58:12;;;;;;;1.27;0.60;;;19.10;99.90;;;;;;5135460;27;20536;-48
2023/07/13 09:01:09;;;;;;;4.30;0.88;;;19.10;99.90;;;;;;5136156;27;20043;-49
2023/07/13 09:03:49;;;;;;;2.55;0.73;;;19.00;99.90;;;;;;5136007;27;20192;-47
2023/07/13 09:06:16;;;;;;;2.97;1.10;;;19.00;99.90;;;;;;5135215;27;20134;-48
2023/07/13 09:08:54;;;;;;;2.45;0.80;;;19.10;99.90;;;;;;5135844;27;20062;-48
2023/07/13 09:11:47;;;;;;;2.88;1.00;;;19.20;99.90;;;;;;5117584;27;20399;-47
2023/07/13 09:14:25;;;;;;;3.35;0.93;;;19.20;99.90;;;;;;5135710;27;20507;-48
2023/07/13 09:16:51;;;;;;;4.57;1.10;;;19.20;99.90;;;;;;5135749;27;20130;-48
2023/07/13 09:19:27;;;;;;;3.58;0.93;;;19.30;99.90;;;;;;5135635;27;20093;-48
2023/07/13 09:21:55;;;;;;;3.03;1.10;;;19.30;99.90;;;;;;5135844;27;20039;-48
2023/07/13 09:24:50;;;;;;;3.40;1.00;;;19.30;99.90;;;;;;5117112;27;20061;-48
2023/07/13 09:27:42;;;;;;;3.55;1.00;;;19.40;99.90;;;;;;5135697;27;20047;-48
2023/07/13 09:30:25;;;;;;;3.63;1.10;;;19.40;99.90;;;;;;5124136;27;20055;-48
2023/07/13 09:32:52;;;;;;;4.03;1.40;;;19.30;99.90;;;;;;5135331;27;20071;-48
2023/07/13 09:35:28;;;;;;;3.45;0.80;;;19.40;99.90;;;;;;5135176;27;20051;-49
2023/07/13 09:38:12;;;;;;;2.67;1.05;;;19.40;99.90;;;;;;5135345;27;20050;-47
2023/07/13 09:40:58;;;;;;;2.97;1.20;;;19.50;99.90;;;;;;5117186;27;20051;-47
2023/07/13 09:43:25;;;;;;;4.82;1.20;;;19.60;99.90;;;;;;5135114;27;20043;-48
2023/07/13 09:45:50;;;;;;;2.45;0.93;;;19.80;99.90;;;;;;5135014;27;20047;-47
2023/07/13 09:48:18;;;;;;;2.63;0.70;;;19.90;99.90;;;;;;5135145;27;20053;-47
2023/07/13 09:50:44;;;;;;;2.30;0.93;;;20.10;99.90;;;;;;5134890;27;20050;-47
2023/07/13 09:53:14;;;;;;;;;;;20.20;99.90;;;;;;5135674;27;20043;-49
2023/07/13 09:55:41;;;;;;;3.15;0.95;;;20.20;99.90;;;;;;5134865;27;20371;-49
2023/07/13 09:58:12;;;;;;;2.40;0.93;;;20.20;99.90;;;;;;5134726;27;20035;-49
2023/07/13 10:00:39;;;;;;;1.58;0.70;;;20.20;99.90;;;;;;5134705;27;20487;-48
2023/07/13 10:03:23;;;;;;;1.63;0.82;;;20.20;99.90;;;;;;5134889;27;20090;-50
2023/07/13 10:05:51;;;;;;;1.50;0.60;;;20.20;99.90;;;;;;5134714;27;20039;-47
2023/07/13 10:08:33;;;;;;;2.72;0.68;;;20.20;99.90;;;;;;5134397;27;20112;-47
2023/07/13 10:11:09;;;;;;;2.00;0.50;;;20.20;99.90;;;;;;5134744;27;20050;-47
2023/07/13 10:13:37;;;;;;;6.13;1.13;;;20.10;99.90;;;;;;5116858;28;20512;-47
2023/07/13 10:16:05;;;;;;;1.63;0.70;;;20.10;99.90;;;;;;5134549;27;20515;-49
2023/07/13 10:18:44;;;;;;;1.42;0.60;;;20.00;99.90;;;;;;5134610;27;20572;-47
2023/07/13 10:21:16;;;;;;;3.15;0.60;;;19.90;99.90;;;;;;5134387;27;20510;-47
2023/07/13 10:23:44;;;;;;;2.00;0.50;;;20.00;99.90;;;;;;5134692;27;20047;-48
2023/07/13 10:26:21;;;;;;;2.13;0.57;;;20.10;99.90;;;;;;5134664;27;20035;-47
2023/07/13 10:28:52;;;;;;;2.55;0.52;;;20.30;99.90;;;;;;5134677;27;20078;-48
2023/07/13 10:31:19;;;;;;;3.50;0.68;;;20.40;99.90;;;;;;5134458;28;20066;-48
2023/07/13 10:33:45;;;;;;;1.33;0.50;;;20.50;99.90;;;;;;5134326;28;20100;-49
2023/07/13 10:36:41;;;;;;;1.63;0.40;;;20.60;99.90;;;;;;5134521;28;20130;-50
2023/07/13 10:39:13;;;;;;;3.67;0.60;;;20.80;99.90;;;;;;5134460;28;20104;-55
2023/07/13 10:41:42;;;;;;;1.17;0.43;;;20.90;99.90;;;;;;5134314;28;20555;-47
2023/07/13 10:44:19;;;;;;;2.20;0.50;;;20.80;99.90;;;;;;5134246;28;20039;-49
2023/07/13 10:46:46;;;;;;;1.95;0.40;;;20.70;99.90;;;;;;5134834;28;20088;-56
2023/07/13 10:49:12;;;;;;;2.75;0.52;;;20.70;99.90;;;;;;5134501;28;20412;-47
2023/07/13 10:51:40;;;;;;;2.25;0.55;;;20.80;99.90;;;;;;5134296;28;20039;-47
2023/07/13 10:54:21;;;;;;;3.45;0.55;;;20.90;99.90;;;;;;5134210;28;20047;-48
2023/07/13 10:56:50;;;;;;;1.75;0.47;;;21.00;99.90;;;;;;5116163;28;20372;-53
2023/07/13 10:59:25;;;;;;;2.05;0.40;;;20.90;99.90;;;;;;5134222;28;20047;-51
2023/07/13 11:02:09;;;;;;;2.35;0.50;;;20.80;99.90;;;;;;5134566;28;20115;-47
2023/07/13 11:05:15;;;;;;;0.82;0.32;;;20.90;99.90;;;;;;5134357;28;20047;-47
2023/07/13 11:08:23;;;;;;;1.08;0.30;;;20.90;99.90;;;;;;5134176;28;20066;-46
2023/07/13 11:10:55;;;;;;;0.57;0.30;;;20.90;99.90;;;;;;5123451;28;20043;-47
2023/07/13 11:13:37;;;;;;;1.35;0.40;;;21.20;99.90;;;;;;5134134;28;20123;-48
2023/07/13 11:16:33;;;;;;;1.25;0.32;;;21.50;99.90;;;;;;5134349;28;20047;-50
2023/07/13 11:19:02;;;;;;;2.72;0.57;;;21.70;99.90;;;;;;5127039;28;20055;-46
2023/07/13 11:21:30;;;;;;;1.08;0.60;;;21.80;99.90;;;;;;5136305;27;20499;-47
2023/07/13 11:24:15;;;;;;;0.45;0.30;;;21.70;99.90;;;;;;5119477;27;20051;-47
2023/07/13 11:26:50;;;;;;;2.22;0.80;;;21.60;99.90;;;;;;5137712;27;20043;-51
2023/07/13 11:29:32;;;;;;;3.05;0.60;;;21.70;99.90;;;;;;5137852;27;20067;-46
2023/07/13 11:32:01;;;;;;;1.80;0.55;;;21.80;99.90;;;;;;5137670;27;20096;-48
2023/07/13 11:34:38;;;;;;;2.85;0.43;;;22.10;99.90;;;;;;5137682;27;20035;-48
2023/07/13 11:37:12;;;;;;;2.83;0.70;;;22.40;99.90;;;;;;5102488;27;20107;-49
2023/07/13 11:39:42;;;;;;;3.25;0.55;;;22.50;99.90;;;;;;5137694;27;20101;-47
2023/07/13 11:42:13;;;;;;;6.47;1.58;;;22.50;99.90;;;;;;5137701;27;20039;-48
2023/07/13 11:44:47;;;;;;;2.65;0.68;;;22.50;99.90;;;;;;5137430;27;20043;-47
2023/07/13 11:47:22;;;;;;;1.33;0.40;;;22.40;99.90;;;;;;5137823;27;20369;-51
2023/07/13 11:49:56;;;;;;;1.75;0.55;;;22.50;99.90;;;;;;5137422;27;20043;-47
2023/07/13 11:52:36;;;;;;;3.13;0.50;;;22.60;99.90;;;;;;5137292;27;20039;-47
2023/07/13 11:55:13;;;;;;;1.67;0.70;;;22.70;99.90;;;;;;5137276;27;20048;-47
2023/07/13 11:57:56;;;;;;;2.20;0.50;;;22.80;99.90;;;;;;5119214;27;20047;-48
2023/07/13 12:00:27;;;;;;;1.10;0.40;;;22.90;99.90;;;;;;5137313;27;20061;-49
2023/07/13 12:02:56;;;;;;;1.10;0.50;;;23.00;99.90;;;;;;5137256;27;20074;-47
2023/07/13 12:05:22;;;;;;;0.93;0.32;;;23.10;99.90;;;;;;5136931;27;20042;-48
2023/07/13 12:07:49;;;;;;;1.45;0.40;;;23.20;99.90;;;;;;5136920;27;20066;-48
2023/07/13 12:10:28;;;;;;;1.75;0.40;;;23.30;99.70;;;;;;5136760;27;20059;-47
2023/07/13 12:12:56;;;;;;;1.98;0.50;;;23.50;99.50;;;;;;5137350;27;20065;-48
2023/07/13 12:15:23;;;;;;;1.13;0.40;;;23.70;99.30;;;;;;5136976;27;20058;-48
2023/07/13 12:17:49;;;;;;;1.48;0.40;;;23.80;99.20;;;;;;5136816;27;20130;-54
2023/07/13 12:20:23;;;;;;;;;;;23.80;98.90;;;;;;5136990;27;20047;-48
2023/07/13 12:22:51;;;;;;;2.90;0.60;;;23.70;98.30;;;;;;5136802;27;19926;-48
2023/07/13 12:25:18;;;;;;;1.63;0.80;;;23.60;99.00;;;;;;5101861;27;20046;-47
2023/07/13 12:27:49;;;;;;;2.95;0.60;;;23.50;99.10;;;;;;5118536;27;20480;-48
2023/07/13 12:30:20;;;;;;;2.70;0.50;;;23.60;99.50;;;;;;5136598;27;20047;-47
2023/07/13 12:32:57;;;;;;;2.25;0.70;;;23.80;99.20;;;;;;5118328;27;20043;-48
2023/07/13 12:35:23;;;;;;;;;;;24.10;98.90;;;;;;5137205;27;20051;-48
2023/07/13 12:37:48;;;;;;;1.58;0.50;;;24.00;97.80;;;;;;5136462;27;20261;-47
2023/07/13 12:40:22;;;;;;;;;;;24.10;98.50;;;;;;5136911;27;20400;-48
2023/07/13 12:42:50;;;;;;;3.55;0.75;;;23.80;97.80;;;;;;5118247;27;19926;-49
2023/07/13 12:45:20;;;;;;;2.55;0.70;;;23.40;97.70;;;;;;5136083;27;20130;-55
2023/07/13 12:47:49;;;;;;;2.13;0.73;;;22.90;98.50;;;;;;5136905;27;20039;-54
2023/07/13 12:50:22;;;;;;;1.70;0.55;;;22.50;99.00;;;;;;5136171;27;20100;-54
2023/07/13 12:53:03;;;;;;;0.90;0.50;;;22.20;99.40;;;;;;5136106;27;20051;-53
2023/07/13 12:55:33;;;;;;;1.17;0.40;;;21.80;98.50;;;;;;5135960;27;20142;-54
2023/07/13 12:58:04;;;;;;;1.05;0.47;;;21.60;99.30;;;;;;5136098;27;20078;-47
2023/07/13 13:00:32;;;;;;;0.73;0.30;;;21.70;99.20;;;;;;5136202;27;20035;-49